Time;durP1;ratioP1;P1;durP2;ratioP2;P2;SDS_P1;SDS_P2;PMS_P1;PMS_P2;Temp;Humidity;BMP_temperature;BMP_pressure;BME280_temperature;BME280_humidity;BME280_pressure;Samples;Min_cycle;Max_cycle;Signal;HPM_P1;HPM_P2
2021/12/30 00:01:43;;;;;;;0.47;0.32;;;;;;;;;;5031137;28;20021;-75
2021/12/30 00:04:08;;;;;;;0.50;0.30;;;;;;;;;;5031472;28;20036;-75
2021/12/30 00:06:40;;;;;;;0.50;0.30;;;;;;;;;;5028262;28;20041;-75
2021/12/30 00:09:07;;;;;;;0.30;0.25;;;;;;;;;;5026655;28;20128;-75
2021/12/30 00:11:32;;;;;;;0.90;0.40;;;;;;;;;;5026670;28;20362;-76
2021/12/30 00:13:57;;;;;;;0.30;0.25;;;;;;;;;;5025460;28;20104;-75
2021/12/30 00:16:22;;;;;;;0.50;0.38;;;;;;;;;;5022217;28;20060;-76
2021/12/30 00:18:49;;;;;;;0.70;0.20;;;;;;;;;;5029110;28;20393;-75
2021/12/30 00:21:14;;;;;;;0.30;0.30;;;;;;;;;;5024418;28;20033;-75
2021/12/30 00:23:40;;;;;;;1.90;0.30;;;;;;;;;;5026959;28;20018;-75
2021/12/30 00:26:05;;;;;;;0.57;0.22;;;;;;;;;;5026506;28;20018;-75
2021/12/30 00:28:30;;;;;;;0.25;0.20;;;;;;;;;;5029848;28;20084;-76
2021/12/30 00:30:55;;;;;;;0.20;0.20;;;;;;;;;;5024495;28;20021;-74
2021/12/30 00:33:21;;;;;;;0.60;0.20;;;;;;;;;;5028730;28;20021;-75
2021/12/30 00:35:46;;;;;;;0.30;0.20;;;;;;;;;;5033229;28;20036;-75
2021/12/30 00:38:12;;;;;;;0.47;0.28;;;;;;;;;;5026234;28;20429;-74
2021/12/30 00:40:37;;;;;;;0.10;0.10;;;;;;;;;;5024972;28;20044;-75
2021/12/30 00:43:03;;;;;;;0.38;0.13;;;;;;;;;;5025321;28;20104;-75
2021/12/30 00:45:29;;;;;;;0.30;0.30;;;;;;;;;;5027435;28;20025;-74
2021/12/30 00:47:55;;;;;;;0.50;0.22;;;;;;;;;;5027268;28;20113;-75
2021/12/30 00:50:20;;;;;;;0.35;0.10;;;;;;;;;;5025717;28;20021;-74
2021/12/30 00:52:45;;;;;;;0.32;0.25;;;;;;;;;;5024723;28;20037;-75
2021/12/30 00:55:11;;;;;;;0.43;0.20;;;;;;;;;;5029029;28;20044;-74
2021/12/30 00:57:36;;;;;;;0.10;0.10;;;;;;;;;;5019940;28;20444;-76
2021/12/30 01:00:03;;;;;;;0.47;0.22;;;;;;;;;;5023186;28;20052;-75
2021/12/30 01:02:28;;;;;;;0.50;0.20;;;;;;;;;;5027212;28;20449;-75
2021/12/30 01:04:54;;;;;;;0.20;0.20;;;;;;;;;;5024059;28;20053;-76
2021/12/30 01:07:21;;;;;;;0.45;0.13;;;;;;;;;;5029174;28;20041;-74
2021/12/30 01:09:46;;;;;;;1.55;0.20;;;;;;;;;;5022024;28;20148;-73
2021/12/30 01:12:11;;;;;;;0.40;0.20;;;;;;;;;;5027371;28;20456;-74
2021/12/30 01:14:36;;;;;;;0.57;0.35;;;;;;;;;;5024547;28;20025;-74
2021/12/30 01:17:14;;;;;;;0.60;0.30;;;;;;;;;;5024184;28;20037;-74
2021/12/30 01:22:05;;;;;;;0.60;0.20;;;;;;;;;;5025885;28;20029;-75
2021/12/30 01:24:30;;;;;;;0.20;0.20;;;;;;;;;;5025426;28;20453;-75
2021/12/30 01:26:56;;;;;;;0.20;0.20;;;;;;;;;;5023999;28;20397;-74
2021/12/30 01:29:22;;;;;;;0.30;0.30;;;;;;;;;;5026450;28;20021;-74
2021/12/30 01:31:47;;;;;;;0.15;0.10;;;;;;;;;;5029006;28;20032;-75
2021/12/30 01:34:12;;;;;;;0.25;0.25;;;;;;;;;;5024366;28;20457;-75
2021/12/30 01:36:38;;;;;;;0.75;0.38;;;;;;;;;;5023776;28;20026;-75
2021/12/30 01:39:03;;;;;;;0.38;0.30;;;;;;;;;;5023389;28;20064;-74
2021/12/30 01:41:28;;;;;;;1.35;0.20;;;;;;;;;;5024835;28;20025;-74
2021/12/30 01:43:53;;;;;;;0.40;0.20;;;;;;;;;;5016156;28;20014;-73
2021/12/30 01:46:19;;;;;;;0.40;0.20;;;;;;;;;;5025810;28;20382;-74
2021/12/30 01:48:44;;;;;;;0.95;0.25;;;;;;;;;;5020132;28;20135;-74
2021/12/30 01:51:09;;;;;;;0.40;0.20;;;;;;;;;;5025500;28;20025;-75
2021/12/30 01:53:35;;;;;;;0.40;0.20;;;;;;;;;;5030339;28;20025;-75
2021/12/30 01:56:01;;;;;;;0.45;0.20;;;;;;;;;;5026384;28;20021;-75
2021/12/30 01:58:26;;;;;;;0.35;0.20;;;;;;;;;;5021679;28;20068;-74
2021/12/30 02:00:52;;;;;;;0.50;0.30;;;;;;;;;;5023680;28;20021;-74
2021/12/30 02:03:17;;;;;;;0.30;0.10;;;;;;;;;;5021838;28;20342;-74
2021/12/30 02:05:43;;;;;;;1.20;0.20;;;;;;;;;;5020610;28;20014;-76
2021/12/30 02:08:12;;;;;;;1.00;0.17;;;;;;;;;;5021352;28;20124;-73
2021/12/30 02:10:39;;;;;;;0.20;0.17;;;;;;;;;;5024700;28;20478;-75
2021/12/30 02:13:05;;;;;;;0.22;0.20;;;;;;;;;;5022400;28;20080;-75
2021/12/30 02:15:30;;;;;;;0.40;0.25;;;;;;;;;;5024398;28;20049;-75
2021/12/30 02:17:55;;;;;;;0.22;0.20;;;;;;;;;;5021223;28;20033;-74
2021/12/30 02:20:37;;;;;;;0.70;0.20;;;;;;;;;;5022768;28;20022;-75
2021/12/30 02:23:03;;;;;;;0.30;0.20;;;;;;;;;;5022078;28;20029;-74
2021/12/30 02:25:29;;;;;;;0.22;0.20;;;;;;;;;;5025016;28;20030;-75
2021/12/30 02:27:54;;;;;;;0.22;0.22;;;;;;;;;;5024634;28;20029;-75
2021/12/30 02:30:19;;;;;;;0.20;0.20;;;;;;;;;;5017633;28;20097;-75
2021/12/30 02:32:44;;;;;;;0.65;0.20;;;;;;;;;;5026179;28;20035;-76
2021/12/30 02:35:10;;;;;;;0.20;0.20;;;;;;;;;;5016728;28;20052;-75
2021/12/30 02:37:35;;;;;;;0.38;0.38;;;;;;;;;;5028236;28;20056;-75
2021/12/30 02:40:00;;;;;;;0.45;0.30;;;;;;;;;;5026602;28;20025;-75
2021/12/30 02:42:26;;;;;;;0.13;0.13;;;;;;;;;;5017682;28;20112;-75
2021/12/30 02:44:51;;;;;;;1.15;0.22;;;;;;;;;;5027277;28;20481;-76
2021/12/30 02:47:16;;;;;;;0.30;0.30;;;;;;;;;;5027961;28;20117;-75
2021/12/30 02:49:42;;;;;;;0.20;0.20;;;;;;;;;;5023996;28;20079;-74
2021/12/30 02:52:07;;;;;;;0.30;0.30;;;;;;;;;;5022669;28;20060;-74
2021/12/30 02:54:32;;;;;;;0.65;0.22;;;;;;;;;;5028109;28;20426;-75
2021/12/30 02:56:57;;;;;;;0.30;0.30;;;;;;;;;;5022122;28;20095;-75
2021/12/30 02:59:23;;;;;;;0.30;0.17;;;;;;;;;;5021494;28;20393;-75
2021/12/30 03:01:49;;;;;;;1.00;0.38;;;;;;;;;;5016572;28;20566;-74
2021/12/30 03:04:14;;;;;;;0.38;0.30;;;;;;;;;;5018828;28;20547;-75
2021/12/30 03:06:39;;;;;;;1.45;0.30;;;;;;;;;;5029007;28;20037;-75
2021/12/30 03:09:05;;;;;;;0.50;0.30;;;;;;;;;;5029164;28;20030;-75
2021/12/30 03:11:30;;;;;;;0.32;0.25;;;;;;;;;;5031849;28;20381;-75
2021/12/30 03:13:56;;;;;;;0.40;0.20;;;;;;;;;;5030072;28;20026;-73
2021/12/30 03:16:26;;;;;;;0.73;0.25;;;;;;;;;;5021377;28;20018;-74
2021/12/30 03:18:51;;;;;;;0.28;0.28;;;;;;;;;;5031273;28;20086;-75
2021/12/30 03:21:18;;;;;;;0.20;0.20;;;;;;;;;;5031199;28;20500;-76
2021/12/30 03:23:43;;;;;;;0.60;0.38;;;;;;;;;;5042353;28;20021;-75
2021/12/30 03:26:09;;;;;;;0.60;0.40;;;;;;;;;;5025854;28;20492;-74
2021/12/30 03:28:34;;;;;;;1.20;0.30;;;;;;;;;;5024351;28;20068;-74
2021/12/30 03:30:59;;;;;;;0.55;0.40;;;;;;;;;;5026536;28;20025;-74
2021/12/30 03:33:25;;;;;;;0.50;0.32;;;;;;;;;;5027110;28;20128;-73
2021/12/30 03:35:51;;;;;;;0.68;0.40;;;;;;;;;;5029465;28;20247;-74
2021/12/30 03:38:16;;;;;;;0.50;0.30;;;;;;;;;;5029110;28;20531;-75
2021/12/30 03:40:41;;;;;;;1.00;0.50;;;;;;;;;;5028476;28;20386;-73
2021/12/30 03:43:06;;;;;;;0.65;0.45;;;;;;;;;;5027934;28;20041;-76
2021/12/30 03:45:31;;;;;;;1.15;0.55;;;;;;;;;;5029318;28;20041;-74
2021/12/30 03:47:57;;;;;;;0.40;0.40;;;;;;;;;;5023966;28;20184;-74
2021/12/30 03:50:24;;;;;;;0.70;0.50;;;;;;;;;;5023966;28;20022;-75
2021/12/30 03:53:00;;;;;;;1.65;0.60;;;;;;;;;;5032416;28;20262;-74
2021/12/30 03:55:27;;;;;;;0.73;0.40;;;;;;;;;;5025354;28;20591;-73
2021/12/30 03:57:53;;;;;;;0.98;0.47;;;;;;;;;;5039880;28;20037;-73
2021/12/30 04:00:19;;;;;;;0.50;0.43;;;;;;;;;;5025632;28;20470;-74
2021/12/30 04:02:44;;;;;;;0.60;0.40;;;;;;;;;;5023243;28;20028;-76
2021/12/30 04:05:10;;;;;;;1.17;0.60;;;;;;;;;;5023415;28;20736;-75
2021/12/30 04:07:35;;;;;;;0.70;0.50;;;;;;;;;;5027041;28;20092;-74
2021/12/30 04:10:00;;;;;;;1.30;0.57;;;;;;;;;;5026825;28;20029;-75
2021/12/30 04:12:25;;;;;;;0.57;0.45;;;;;;;;;;5026835;28;20030;-74
2021/12/30 04:14:51;;;;;;;0.82;0.50;;;;;;;;;;5025334;28;20100;-75
2021/12/30 04:17:16;;;;;;;0.50;0.40;;;;;;;;;;5022648;28;20077;-74
2021/12/30 04:19:41;;;;;;;0.43;0.30;;;;;;;;;;5026058;28;20096;-73
2021/12/30 04:22:06;;;;;;;2.15;0.50;;;;;;;;;;5021812;28;20037;-77
2021/12/30 04:24:32;;;;;;;0.40;0.40;;;;;;;;;;5018637;28;20533;-77
2021/12/30 04:26:57;;;;;;;0.70;0.40;;;;;;;;;;5029816;28;20092;-75
2021/12/30 04:29:22;;;;;;;1.02;0.40;;;;;;;;;;5028825;28;20125;-75
2021/12/30 04:31:47;;;;;;;1.13;0.38;;;;;;;;;;5020343;28;20505;-74
2021/12/30 04:34:13;;;;;;;0.35;0.35;;;;;;;;;;5025556;28;20396;-74
2021/12/30 04:36:39;;;;;;;0.60;0.40;;;;;;;;;;5028872;28;20112;-74
2021/12/30 04:39:04;;;;;;;1.17;0.40;;;;;;;;;;5026972;28;20033;-74
2021/12/30 04:41:29;;;;;;;0.38;0.38;;;;;;;;;;5030669;28;20104;-74
2021/12/30 04:43:55;;;;;;;3.70;0.30;;;;;;;;;;5028148;28;20100;-74
2021/12/30 04:46:20;;;;;;;0.40;0.30;;;;;;;;;;5023878;28;20460;-75
2021/12/30 04:48:45;;;;;;;0.60;0.40;;;;;;;;;;5027554;28;20028;-74
2021/12/30 04:51:10;;;;;;;1.15;0.65;;;;;;;;;;5022587;28;20021;-74
2021/12/30 04:53:35;;;;;;;0.60;0.45;;;;;;;;;;5030939;28;20025;-74
2021/12/30 04:56:01;;;;;;;0.45;0.30;;;;;;;;;;5028088;28;20014;-75
2021/12/30 04:58:26;;;;;;;1.08;0.40;;;;;;;;;;5025461;28;20056;-75
2021/12/30 05:00:51;;;;;;;1.05;0.50;;;;;;;;;;5022335;28;20024;-74
2021/12/30 05:03:16;;;;;;;0.30;0.30;;;;;;;;;;5029420;28;20045;-75
2021/12/30 05:05:44;;;;;;;1.00;0.70;;;;;;;;;;5026643;28;20064;-75
2021/12/30 05:08:09;;;;;;;0.80;0.40;;;;;;;;;;5026468;28;20053;-75
2021/12/30 05:10:35;;;;;;;0.55;0.30;;;;;;;;;;5026247;28;20374;-75
2021/12/30 05:13:01;;;;;;;0.30;0.28;;;;;;;;;;5023855;28;20040;-75
2021/12/30 05:15:26;;;;;;;0.40;0.30;;;;;;;;;;5031091;28;20022;-73
2021/12/30 05:17:51;;;;;;;0.55;0.50;;;;;;;;;;5029110;28;20473;-75
2021/12/30 05:20:17;;;;;;;0.73;0.40;;;;;;;;;;5026711;28;20041;-74
2021/12/30 05:22:45;;;;;;;0.70;0.43;;;;;;;;;;5023077;28;20117;-74
2021/12/30 05:25:11;;;;;;;0.63;0.40;;;;;;;;;;5022187;28;20017;-75
2021/12/30 05:27:36;;;;;;;0.70;0.40;;;;;;;;;;5027026;28;20385;-74
2021/12/30 05:30:03;;;;;;;0.30;0.30;;;;;;;;;;5024457;28;20030;-76
2021/12/30 05:32:28;;;;;;;0.63;0.57;;;;;;;;;;5023528;28;20025;-75
2021/12/30 05:34:53;;;;;;;0.75;0.50;;;;;;;;;;5025753;28;20105;-76
2021/12/30 05:37:18;;;;;;;0.65;0.30;;;;;;;;;;5024934;28;21570;-74
2021/12/30 05:39:43;;;;;;;1.13;0.30;;;;;;;;;;5024334;28;20041;-74
2021/12/30 05:42:09;;;;;;;0.43;0.30;;;;;;;;;;5023248;28;20022;-75
2021/12/30 05:44:34;;;;;;;2.30;0.80;;;;;;;;;;5025536;28;20035;-74
2021/12/30 05:46:59;;;;;;;0.30;0.30;;;;;;;;;;5027711;28;20029;-74
2021/12/30 05:49:24;;;;;;;0.55;0.43;;;;;;;;;;5020400;28;20029;-75
2021/12/30 05:51:50;;;;;;;1.85;0.45;;;;;;;;;;5021283;28;20057;-75
2021/12/30 05:54:15;;;;;;;0.77;0.40;;;;;;;;;;5029188;28;20097;-74
2021/12/30 05:56:40;;;;;;;0.20;0.20;;;;;;;;;;5028174;28;20041;-73
2021/12/30 05:59:05;;;;;;;0.57;0.40;;;;;;;;;;5020207;28;20037;-75
2021/12/30 06:01:31;;;;;;;0.82;0.40;;;;;;;;;;5028033;28;20029;-76
2021/12/30 06:03:56;;;;;;;1.08;0.40;;;;;;;;;;5025401;28;20032;-76
2021/12/30 06:06:21;;;;;;;1.23;0.40;;;;;;;;;;5031825;28;20057;-74
2021/12/30 06:08:46;;;;;;;0.57;0.30;;;;;;;;;;5024196;28;20118;-74
2021/12/30 06:11:11;;;;;;;0.40;0.28;;;;;;;;;;5026662;28;20029;-75
2021/12/30 06:13:36;;;;;;;1.02;0.40;;;;;;;;;;5027559;28;20040;-74
2021/12/30 06:16:02;;;;;;;0.85;0.40;;;;;;;;;;5025227;28;20083;-76
2021/12/30 06:18:27;;;;;;;0.70;0.30;;;;;;;;;;5021040;28;20036;-74
2021/12/30 06:20:52;;;;;;;0.40;0.25;;;;;;;;;;5013375;28;20545;-75
2021/12/30 06:23:17;;;;;;;1.27;0.40;;;;;;;;;;5026478;28;20013;-76
2021/12/30 06:25:42;;;;;;;0.82;0.32;;;;;;;;;;5025839;28;20029;-74
2021/12/30 06:28:08;;;;;;;1.33;0.40;;;;;;;;;;5025491;28;20465;-75
2021/12/30 06:30:33;;;;;;;1.30;0.38;;;;;;;;;;5024684;28;20052;-75
2021/12/30 06:32:58;;;;;;;0.60;0.35;;;;;;;;;;5027862;28;20028;-75
2021/12/30 06:35:23;;;;;;;0.90;0.40;;;;;;;;;;5022170;28;20107;-74
2021/12/30 06:37:48;;;;;;;0.63;0.30;;;;;;;;;;5020418;28;20689;-74
2021/12/30 06:40:14;;;;;;;0.73;0.40;;;;;;;;;;5026317;28;20029;-75
2021/12/30 06:42:41;;;;;;;0.82;0.82;;;;;;;;;;5030000;28;20552;-75
2021/12/30 06:45:06;;;;;;;0.68;0.40;;;;;;;;;;5024027;28;20025;-75
2021/12/30 06:47:31;;;;;;;0.50;0.40;;;;;;;;;;5026911;28;20029;-74
2021/12/30 06:50:01;;;;;;;0.80;0.32;;;;;;;;;;5021252;28;20359;-74
2021/12/30 06:52:26;;;;;;;0.38;0.30;;;;;;;;;;5029150;28;20025;-76
2021/12/30 06:54:51;;;;;;;1.17;0.50;;;;;;;;;;5020270;28;20112;-75
2021/12/30 06:57:17;;;;;;;1.98;0.38;;;;;;;;;;5026319;28;20033;-76
2021/12/30 06:59:42;;;;;;;0.98;0.43;;;;;;;;;;5029771;28;20037;-76
2021/12/30 07:02:08;;;;;;;1.08;0.40;;;;;;;;;;5028363;28;20030;-76
2021/12/30 07:04:33;;;;;;;0.75;0.30;;;;;;;;;;5031914;28;20036;-74
2021/12/30 07:06:58;;;;;;;0.82;0.30;;;;;;;;;;5028315;28;20092;-75
2021/12/30 07:09:23;;;;;;;0.80;0.43;;;;;;;;;;5030142;28;20097;-75
2021/12/30 07:11:49;;;;;;;0.40;0.30;;;;;;;;;;5018523;28;20101;-73
2021/12/30 07:14:18;;;;;;;0.57;0.20;;;;;;;;;;5030824;28;20152;-75
2021/12/30 07:16:43;;;;;;;0.85;0.30;;;;;;;;;;5029148;28;20036;-73
2021/12/30 07:19:08;;;;;;;0.82;0.28;;;;;;;;;;5024812;28;20920;-74
2021/12/30 07:21:34;;;;;;;0.28;0.28;;;;;;;;;;5027693;28;20488;-76
2021/12/30 07:23:59;;;;;;;0.70;0.30;;;;;;;;;;5035937;28;20040;-75
2021/12/30 07:26:24;;;;;;;0.32;0.30;;;;;;;;;;5020363;28;20528;-74
2021/12/30 07:28:49;;;;;;;2.13;0.60;;;;;;;;;;5030659;28;20112;-74
2021/12/30 07:31:14;;;;;;;0.55;0.35;;;;;;;;;;5018177;28;20055;-75
2021/12/30 07:33:39;;;;;;;0.57;0.32;;;;;;;;;;5029772;28;20025;-74
2021/12/30 07:36:05;;;;;;;0.25;0.22;;;;;;;;;;5029711;28;20109;-73
2021/12/30 07:38:30;;;;;;;0.40;0.25;;;;;;;;;;5029910;28;20033;-74
2021/12/30 07:40:55;;;;;;;2.17;0.40;;;;;;;;;;5023901;28;20017;-74
2021/12/30 07:43:20;;;;;;;1.00;0.28;;;;;;;;;;5023232;28;20037;-75
2021/12/30 07:45:45;;;;;;;0.95;0.30;;;;;;;;;;5021314;28;20125;-74
2021/12/30 07:48:11;;;;;;;1.38;0.30;;;;;;;;;;5016967;28;20028;-75
2021/12/30 07:50:36;;;;;;;0.47;0.20;;;;;;;;;;5027910;28;20116;-74
2021/12/30 07:53:01;;;;;;;0.60;0.22;;;;;;;;;;5025268;28;20035;-75
2021/12/30 07:55:26;;;;;;;1.13;0.45;;;;;;;;;;5026891;28;20041;-75
2021/12/30 07:57:55;;;;;;;0.50;0.30;;;;;;;;;;5027811;28;20112;-75
2021/12/30 08:00:20;;;;;;;0.55;0.38;;;;;;;;;;5027952;28;20025;-75
2021/12/30 08:02:46;;;;;;;0.80;0.30;;;;;;;;;;5028292;28;20029;-74
2021/12/30 08:05:16;;;;;;;0.90;0.40;;;;;;;;;;5028435;28;20037;-75
2021/12/30 08:07:42;;;;;;;0.45;0.22;;;;;;;;;;5023433;28;20045;-75
2021/12/30 08:10:12;;;;;;;1.65;0.35;;;;;;;;;;5029121;28;20048;-76
2021/12/30 08:12:38;;;;;;;0.52;0.40;;;;;;;;;;5025650;28;20112;-74
2021/12/30 08:15:03;;;;;;;0.30;0.30;;;;;;;;;;5023413;28;20112;-74
2021/12/30 08:17:28;;;;;;;0.30;0.25;;;;;;;;;;5026316;28;20041;-75
2021/12/30 08:19:53;;;;;;;0.20;0.20;;;;;;;;;;5027026;28;20033;-74
2021/12/30 08:22:19;;;;;;;0.30;0.20;;;;;;;;;;5021706;28;20027;-75
2021/12/30 08:24:44;;;;;;;0.88;0.20;;;;;;;;;;5027934;28;20025;-75
2021/12/30 08:27:12;;;;;;;0.65;0.20;;;;;;;;;;5026583;28;20117;-74
2021/12/30 08:29:37;;;;;;;0.63;0.30;;;;;;;;;;5026321;28;20087;-75
2021/12/30 08:32:03;;;;;;;0.45;0.28;;;;;;;;;;5029644;28;20029;-75
2021/12/30 08:34:28;;;;;;;0.30;0.20;;;;;;;;;;5024240;28;20029;-76
2021/12/30 08:36:53;;;;;;;0.35;0.22;;;;;;;;;;5022883;28;20032;-73
2021/12/30 08:39:19;;;;;;;0.20;0.20;;;;;;;;;;5025181;28;20061;-73
2021/12/30 08:41:44;;;;;;;0.15;0.10;;;;;;;;;;5029809;28;20403;-73
2021/12/30 08:44:09;;;;;;;0.20;0.20;;;;;;;;;;5020762;28;20025;-74
2021/12/30 08:46:34;;;;;;;0.28;0.20;;;;;;;;;;5028948;28;20025;-74
2021/12/30 08:48:59;;;;;;;1.65;0.38;;;;;;;;;;5026367;28;20063;-75
2021/12/30 08:51:25;;;;;;;1.45;0.20;;;;;;;;;;5031474;28;20113;-74
2021/12/30 08:53:50;;;;;;;1.58;0.20;;;;;;;;;;5026443;28;20103;-75
2021/12/30 08:56:17;;;;;;;0.25;0.15;;;;;;;;;;5023394;28;20026;-75
2021/12/30 08:58:42;;;;;;;0.22;0.22;;;;;;;;;;5020981;28;20448;-76
2021/12/30 09:01:07;;;;;;;0.30;0.13;;;;;;;;;;5023873;28;20041;-75
2021/12/30 09:03:32;;;;;;;0.10;0.10;;;;;;;;;;5028915;28;20025;-74
2021/12/30 09:05:58;;;;;;;0.88;0.17;;;;;;;;;;5021164;28;20060;-74
2021/12/30 09:08:23;;;;;;;0.20;0.20;;;;;;;;;;5023570;28;20136;-74
2021/12/30 09:10:50;;;;;;;0.57;0.30;;;;;;;;;;5026374;28;20026;-74
2021/12/30 09:13:15;;;;;;;0.60;0.28;;;;;;;;;;5019737;28;20619;-75
2021/12/30 09:15:41;;;;;;;0.70;0.43;;;;;;;;;;5025249;28;20101;-74
2021/12/30 09:18:07;;;;;;;0.52;0.30;;;;;;;;;;5030761;28;20413;-74
2021/12/30 09:20:32;;;;;;;0.30;0.20;;;;;;;;;;5029081;28;20024;-74
2021/12/30 09:22:58;;;;;;;1.10;0.32;;;;;;;;;;5018399;28;20155;-74
2021/12/30 09:25:24;;;;;;;0.43;0.30;;;;;;;;;;5024107;28;20100;-75
2021/12/30 09:27:50;;;;;;;0.30;0.30;;;;;;;;;;5024749;28;20033;-69
2021/12/30 09:30:16;;;;;;;1.00;0.20;;;;;;;;;;5022467;28;20048;-69
2021/12/30 09:32:41;;;;;;;1.08;0.30;;;;;;;;;;5028258;28;20033;-69
2021/12/30 09:35:07;;;;;;;0.60;0.43;;;;;;;;;;5027043;28;20096;-62
2021/12/30 09:37:32;;;;;;;1.23;0.45;;;;;;;;;;5024276;28;20029;-63
2021/12/30 09:39:59;;;;;;;0.98;0.30;;;;;;;;;;5027898;28;20021;-64
2021/12/30 09:42:24;;;;;;;0.50;0.35;;;;;;;;;;5026967;28;20036;-62
2021/12/30 09:44:50;;;;;;;0.60;0.30;;;;;;;;;;5022685;28;20017;-63
2021/12/30 09:47:15;;;;;;;1.77;0.30;;;;;;;;;;5023891;28;20781;-63
2021/12/30 09:49:40;;;;;;;1.35;0.30;;;;;;;;;;5023565;28;20025;-63
2021/12/30 09:52:06;;;;;;;1.10;0.40;;;;;;;;;;5024677;28;20025;-63
2021/12/30 09:54:31;;;;;;;0.35;0.20;;;;;;;;;;5027660;28;20477;-64
2021/12/30 09:56:56;;;;;;;0.40;0.20;;;;;;;;;;5025191;28;20040;-64
2021/12/30 09:59:22;;;;;;;1.40;0.30;;;;;;;;;;5024289;28;20067;-62
2021/12/30 10:01:48;;;;;;;0.68;0.40;;;;;;;;;;5017539;28;20049;-64
2021/12/30 10:04:13;;;;;;;0.35;0.35;;;;;;;;;;5025890;28;20056;-64
2021/12/30 10:06:43;;;;;;;0.82;0.40;;;;;;;;;;5028816;28;20490;-64
2021/12/30 10:09:13;;;;;;;0.60;0.40;;;;;;;;;;5025460;28;20861;-64
2021/12/30 10:11:45;;;;;;;0.30;0.30;;;;;;;;;;5029152;28;20025;-64
2021/12/30 10:14:11;;;;;;;0.32;0.30;;;;;;;;;;5028939;28;20047;-65
2021/12/30 10:16:36;;;;;;;1.35;0.68;;;;;;;;;;5029017;28;20025;-64
2021/12/30 10:19:05;;;;;;;0.50;0.30;;;;;;;;;;5028665;28;20040;-64
2021/12/30 10:21:38;;;;;;;1.85;0.47;;;;;;;;;;5025809;28;20116;-65
2021/12/30 10:24:05;;;;;;;1.60;0.35;;;;;;;;;;5029111;28;20036;-66
2021/12/30 10:26:30;;;;;;;0.30;0.30;;;;;;;;;;5029243;28;20121;-64
2021/12/30 10:29:00;;;;;;;0.35;0.30;;;;;;;;;;5029581;28;20163;-64
2021/12/30 10:31:27;;;;;;;1.48;0.45;;;;;;;;;;5021850;28;20036;-66
2021/12/30 10:33:52;;;;;;;0.40;0.30;;;;;;;;;;5028807;28;20595;-64
2021/12/30 10:36:22;;;;;;;0.30;0.30;;;;;;;;;;5028678;28;20044;-63
2021/12/30 10:38:48;;;;;;;1.33;0.40;;;;;;;;;;5029027;28;20105;-64
2021/12/30 10:41:13;;;;;;;1.38;0.50;;;;;;;;;;5024431;28;20024;-64
2021/12/30 10:43:45;;;;;;;1.17;0.40;;;;;;;;;;5028734;28;20032;-65
2021/12/30 10:46:14;;;;;;;0.75;0.50;;;;;;;;;;5028428;28;20465;-65
2021/12/30 10:48:48;;;;;;;1.13;0.45;;;;;;;;;;5028351;28;20029;-63
2021/12/30 10:51:15;;;;;;;0.68;0.45;;;;;;;;;;5028307;28;20811;-63
2021/12/30 10:53:40;;;;;;;0.55;0.40;;;;;;;;;;5028195;28;20017;-63
2021/12/30 10:56:29;;;;;;;0.35;0.20;;;;;;;;;;5028033;28;20080;-65
2021/12/30 10:59:06;;;;;;;0.40;0.40;;;;;;;;;;5028056;28;20034;-63
2021/12/30 11:01:35;;;;;;;0.30;0.22;;;;;;;;;;5027966;28;20477;-63
2021/12/30 11:04:01;;;;;;;0.60;0.40;;;;;;;;;;5023134;28;20137;-64
2021/12/30 11:06:26;;;;;;;1.35;0.40;;;;;;;;;;5028308;28;20113;-64
2021/12/30 11:09:08;;;;;;;0.85;0.45;;;;;;;;;;5027951;28;20030;-63
2021/12/30 11:11:34;;;;;;;0.73;0.40;;;;;;;;;;5023096;28;20036;-63
2021/12/30 11:13:59;;;;;;;0.65;0.40;;;;;;;;;;5026252;28;20108;-64
2021/12/30 11:16:25;;;;;;;0.57;0.40;;;;;;;;;;5028359;28;20021;-63
2021/12/30 11:18:50;;;;;;;1.58;0.40;;;;;;;;;;5028001;28;20292;-62
2021/12/30 11:21:33;;;;;;;0.68;0.30;;;;;;;;;;5028251;28;20029;-64
2021/12/30 11:23:59;;;;;;;0.52;0.32;;;;;;;;;;5019876;28;20184;-64
2021/12/30 11:26:24;;;;;;;0.40;0.30;;;;;;;;;;5031654;28;20101;-62
2021/12/30 11:28:50;;;;;;;0.47;0.25;;;;;;;;;;5031943;28;20025;-64
2021/12/30 11:31:15;;;;;;;1.95;0.57;;;;;;;;;;5031548;28;20400;-63
2021/12/30 11:33:40;;;;;;;0.20;0.20;;;;;;;;;;5031188;28;20021;-63
2021/12/30 11:36:05;;;;;;;3.40;0.40;;;;;;;;;;5031800;28;20017;-63
2021/12/30 11:38:31;;;;;;;0.82;0.30;;;;;;;;;;5031101;28;20033;-63
2021/12/30 11:40:56;;;;;;;0.30;0.30;;;;;;;;;;5031452;28;20033;-63
2021/12/30 11:43:21;;;;;;;1.08;0.50;;;;;;;;;;5031368;28;20448;-63
2021/12/30 11:45:46;;;;;;;0.63;0.35;;;;;;;;;;5024382;28;20860;-62
2021/12/30 11:48:20;;;;;;;0.30;0.28;;;;;;;;;;5030099;28;20439;-63
2021/12/30 11:50:45;;;;;;;0.65;0.32;;;;;;;;;;5031297;28;20041;-63
2021/12/30 11:53:12;;;;;;;0.75;0.30;;;;;;;;;;5034659;28;20097;-63
2021/12/30 11:55:57;;;;;;;0.52;0.30;;;;;;;;;;5031031;28;20053;-63
2021/12/30 11:58:28;;;;;;;0.43;0.30;;;;;;;;;;5023557;28;20544;-63
2021/12/30 12:00:54;;;;;;;0.57;0.38;;;;;;;;;;5025699;28;20457;-64
2021/12/30 12:03:46;;;;;;;0.20;0.20;;;;;;;;;;5028861;28;20017;-63
2021/12/30 12:06:34;;;;;;;0.22;0.20;;;;;;;;;;5007368;28;20578;-64
2021/12/30 12:09:05;;;;;;;0.60;0.30;;;;;;;;;;5000809;28;20061;-63
2021/12/30 12:11:32;;;;;;;0.60;0.40;;;;;;;;;;4996869;28;20034;-62
2021/12/30 12:14:16;;;;;;;0.68;0.30;;;;;;;;;;5004977;28;20080;-63
2021/12/30 12:16:49;;;;;;;0.30;0.30;;;;;;;;;;5001800;28;20144;-63
2021/12/30 12:19:17;;;;;;;0.50;0.45;;;;;;;;;;4999317;28;20124;-64
2021/12/30 12:21:44;;;;;;;0.73;0.30;;;;;;;;;;5001619;28;20036;-64
2021/12/30 12:24:18;;;;;;;0.43;0.30;;;;;;;;;;5006358;28;20472;-65
2021/12/30 12:26:43;;;;;;;0.13;0.10;;;;;;;;;;5000439;28;20786;-63
2021/12/30 12:29:24;;;;;;;0.50;0.30;;;;;;;;;;5002047;28;20037;-64
2021/12/30 12:31:57;;;;;;;0.40;0.30;;;;;;;;;;4989989;28;20086;-64
2021/12/30 12:34:32;;;;;;;0.75;0.28;;;;;;;;;;4997314;28;20022;-65
2021/12/30 12:36:58;;;;;;;1.10;0.40;;;;;;;;;;5004857;28;20072;-66
2021/12/30 12:39:36;;;;;;;0.20;0.20;;;;;;;;;;4997347;28;20096;-68
2021/12/30 12:42:01;;;;;;;0.55;0.30;;;;;;;;;;4998964;28;20053;-66
2021/12/30 12:44:27;;;;;;;1.92;0.65;;;;;;;;;;5028425;28;20022;-65
2021/12/30 12:46:52;;;;;;;1.27;0.30;;;;;;;;;;5027141;28;20030;-65
2021/12/30 12:49:33;;;;;;;0.70;0.40;;;;;;;;;;5027087;28;20037;-64
2021/12/30 12:51:59;;;;;;;0.47;0.30;;;;;;;;;;5026711;28;20022;-64
2021/12/30 12:54:43;;;;;;;0.60;0.30;;;;;;;;;;5025488;28;20044;-64
2021/12/30 12:57:12;;;;;;;0.95;0.30;;;;;;;;;;5026050;28;20128;-65
2021/12/30 12:59:38;;;;;;;1.08;0.40;;;;;;;;;;5019816;28;20034;-64
2021/12/30 13:02:05;;;;;;;0.40;0.30;;;;;;;;;;5021241;28;20196;-63
2021/12/30 13:04:30;;;;;;;1.88;0.60;;;;;;;;;;5027479;28;20029;-66
2021/12/30 13:06:59;;;;;;;0.85;0.30;;;;;;;;;;5020490;28;20501;-64
2021/12/30 13:09:24;;;;;;;0.98;0.32;;;;;;;;;;5027122;28;20037;-65
2021/12/30 13:11:51;;;;;;;0.30;0.30;;;;;;;;;;5025359;28;20465;-64
2021/12/30 13:14:20;;;;;;;0.43;0.35;;;;;;;;;;5026380;28;20554;-64
2021/12/30 13:16:54;;;;;;;0.30;0.30;;;;;;;;;;5017525;28;20129;-64
2021/12/30 13:19:20;;;;;;;0.30;0.30;;;;;;;;;;5020750;28;20049;-65
2021/12/30 13:21:48;;;;;;;0.30;0.30;;;;;;;;;;5025527;28;20017;-65
2021/12/30 13:24:32;;;;;;;0.17;0.17;;;;;;;;;;5027102;28;20116;-65
2021/12/30 13:26:58;;;;;;;0.47;0.30;;;;;;;;;;5027525;28;20033;-64
2021/12/30 13:29:27;;;;;;;0.60;0.30;;;;;;;;;;5029149;28;20020;-64
2021/12/30 13:32:03;;;;;;;0.82;0.30;;;;;;;;;;5028840;28;20021;-64
2021/12/30 13:34:29;;;;;;;0.40;0.30;;;;;;;;;;5025778;28;20052;-64
2021/12/30 13:37:07;;;;;;;0.50;0.38;;;;;;;;;;5025913;28;20021;-64
2021/12/30 13:39:35;;;;;;;0.75;0.30;;;;;;;;;;5022703;28;20041;-63
2021/12/30 13:42:01;;;;;;;1.02;0.40;;;;;;;;;;5020011;28;20021;-65
2021/12/30 13:44:36;;;;;;;0.73;0.40;;;;;;;;;;5022319;28;20362;-64
2021/12/30 13:47:19;;;;;;;0.47;0.38;;;;;;;;;;5027484;28;20023;-64
2021/12/30 13:49:45;;;;;;;1.48;0.50;;;;;;;;;;5031420;28;20021;-63
2021/12/30 13:52:10;;;;;;;0.30;0.30;;;;;;;;;;5036764;28;20495;-64
2021/12/30 13:54:35;;;;;;;0.98;0.50;;;;;;;;;;5033944;28;20025;-64
2021/12/30 13:57:00;;;;;;;0.70;0.40;;;;;;;;;;5035593;28;20485;-64
2021/12/30 13:59:29;;;;;;;1.23;0.60;;;;;;;;;;5037669;28;20072;-65
2021/12/30 14:01:56;;;;;;;1.27;0.60;;;;;;;;;;5039079;28;20264;-64
2021/12/30 14:04:28;;;;;;;0.57;0.50;;;;;;;;;;5033623;28;20417;-64
2021/12/30 14:06:57;;;;;;;0.93;0.40;;;;;;;;;;5035559;28;20098;-64
2021/12/30 14:09:22;;;;;;;;;;;;;;;;;;5034551;28;20025;-64
2021/12/30 14:11:50;;;;;;;1.00;0.50;;;;;;;;;;5036384;28;19908;-65
2021/12/30 14:14:24;;;;;;;0.80;0.40;;;;;;;;;;5037335;28;20017;-64
2021/12/30 14:16:54;;;;;;;0.35;0.28;;;;;;;;;;5036406;28;20025;-63
2021/12/30 14:19:26;;;;;;;0.88;0.50;;;;;;;;;;5038411;28;20186;-63
2021/12/30 14:21:51;;;;;;;0.85;0.50;;;;;;;;;;5036105;28;20036;-63
2021/12/30 14:24:23;;;;;;;0.95;0.40;;;;;;;;;;5036000;28;20152;-64
2021/12/30 14:26:51;;;;;;;0.90;0.40;;;;;;;;;;5034338;28;20022;-63
2021/12/30 14:29:17;;;;;;;2.20;0.50;;;;;;;;;;5037924;28;20473;-65
2021/12/30 14:31:47;;;;;;;0.60;0.30;;;;;;;;;;5038780;28;20131;-64
2021/12/30 14:34:17;;;;;;;0.95;0.40;;;;;;;;;;5034108;28;20377;-64
2021/12/30 14:36:49;;;;;;;0.88;0.35;;;;;;;;;;5020354;28;20018;-64
2021/12/30 14:39:27;;;;;;;0.82;0.30;;;;;;;;;;5026170;28;20029;-63
2021/12/30 14:42:11;;;;;;;2.08;0.50;;;;;;;;;;5018156;28;20021;-64
2021/12/30 14:44:37;;;;;;;0.32;0.30;;;;;;;;;;5016085;28;20033;-63